Lulu Pass Weather Station

This weather station is located at 10020ft near Lulu Pass at the head of Fisher Creek. This data can be used with temperature and precipitation data from the Fisher Creek SNOTEL site. This data can be viewed directly on datagarrison.com

Elevation
10020ft
Jump to table bottom
Date Time Temperature
deg F
RH, % Wind Speed Wind Gust Wind Direction
04/16/24 24:00 19.5 95 7 15 NW - 331
04/16/24 23:00 22.5 96 7 21 SW - 244
04/16/24 22:00 22.4 96 10 27 SW - 226
04/16/24 21:00 22.7 96 13 37 SW - 215
04/16/24 20:00 23.0 96 15 28 SW - 211
04/16/24 19:00 25.3 96 20 36 SW - 212
04/16/24 18:00 25.7 96 16 34 SW - 216
04/16/24 17:00 26.3 96 13 26 SW - 226
04/16/24 16:00 26.5 94 13 29 SW - 236
04/16/24 15:00 28.3 80 16 31 SW - 232
04/16/24 14:00 30.5 71 14 29 SW - 222
04/16/24 13:00 30.6 80 12 24 SW - 216
04/16/24 12:00 29.0 78 9 21 SW - 230
04/16/24 11:00 28.3 79 7 17 SW - 241
04/16/24 10:00 25.5 85 7 19 W - 274
04/16/24 9:00 25.0 91 5 12 NW - 293
04/16/24 8:00 21.9 95 10 15 NW - 306
04/16/24 7:00 21.3 96 14 21 NW - 327
04/16/24 6:00 21.8 96 18 25 NW - 331
04/16/24 5:00 22.9 96 15 21 NW - 334
04/16/24 4:00 24.0 96 17 24 NW - 334
04/16/24 3:00 24.9 95 16 24 N - 341
04/16/24 2:00 25.0 96 18 28 N - 343
04/16/24 1:00 26.1 97 21 30 NW - 327
04/15/24 24:00 27.8 97 17 24 NW - 326
04/15/24 23:00 27.2 97 19 24 NW - 337
04/15/24 22:00 26.9 97 15 20 NW - 337
04/15/24 21:00 27.6 96 16 20 N - 348
04/15/24 20:00 27.3 96 14 18 NW - 333
04/15/24 19:00 29.0 89 15 19 NW - 333
04/15/24 18:00 28.7 90 14 21 NW - 330
04/15/24 17:00 28.3 92 15 20 NW - 320
04/15/24 16:00 30.8 78 15 20 NW - 327
04/15/24 15:00 31.6 75 6 16 NE - 55
04/15/24 14:00 32.8 82 7 19 NE - 51
04/15/24 13:00 34.4 83 11 17 NW - 334
04/15/24 12:00 34.2 81 8 15 NW - 330
04/15/24 11:00 36.7 78 7 11 NW - 327
04/15/24 10:00 36.8 79 4 6 N - 14
04/15/24 9:00 33.3 83 2 4 NW - 320
04/15/24 8:00 30.7 87 5 14 N - 8
04/15/24 7:00 31.9 80 5 12 NE - 65
04/15/24 6:00 29.2 90 7 15 N - 10
04/15/24 5:00 27.2 96 11 18 N - 345
04/15/24 4:00 28.0 95 7 14 W - 279
04/15/24 3:00 30.5 84 10 17 NW - 307
04/15/24 2:00 32.2 75 10 106 NW - 323
04/15/24 1:00 33.6 72 8 11 N - 1
04/14/24 24:00 33.1 76 10 15 N - 343
04/14/24 23:00 33.8 71 14 29 NE - 24